sensor_id;sensor_type;location;lat;lon;timestamp;pressure;altitude;pressure_sealevel;temperature;humidity
47260;BME280;32999;52.412;4.890;2023-03-04T02:50:27;102661.25;;;7.32;100.00
47260;BME280;32999;52.412;4.890;2023-03-04T02:55:35;102650.50;;;7.33;100.00
47260;BME280;32999;52.412;4.890;2023-03-04T03:00:44;102630.19;;;7.55;100.00
47260;BME280;32999;52.412;4.890;2023-03-04T03:06:46;102653.16;;;7.33;100.00
47260;BME280;32999;52.412;4.890;2023-03-04T03:54:38;102644.56;;;7.63;100.00
47260;BME280;32999;52.412;4.890;2023-03-04T04:49:15;102659.09;;;8.13;100.00
47260;BME280;32999;52.412;4.890;2023-03-04T05:24:09;102642.59;;;8.19;100.00
47260;BME280;32999;52.412;4.890;2023-03-04T05:41:51;102645.38;;;8.18;100.00
47260;BME280;32999;52.412;4.890;2023-03-04T07:59:48;102672.78;;;8.73;100.00
47260;BME280;32999;52.412;4.890;2023-03-04T08:04:52;102678.56;;;8.99;100.00
47260;BME280;32999;52.412;4.890;2023-03-04T08:09:55;102653.25;;;8.93;100.00
47260;BME280;32999;52.412;4.890;2023-03-04T08:14:57;102685.53;;;9.11;100.00
47260;BME280;32999;52.412;4.890;2023-03-04T08:19:58;102637.78;;;9.38;100.00
47260;BME280;32999;52.412;4.890;2023-03-04T08:25:02;102698.28;;;9.59;100.00
47260;BME280;32999;52.412;4.890;2023-03-04T08:30:04;102656.22;;;9.20;100.00
47260;BME280;32999;52.412;4.890;2023-03-04T08:35:06;102707.59;;;9.43;100.00
47260;BME280;32999;52.412;4.890;2023-03-04T08:40:11;102625.06;;;8.91;100.00
47260;BME280;32999;52.412;4.890;2023-03-04T08:45:13;102679.63;;;9.78;100.00
47260;BME280;32999;52.412;4.890;2023-03-04T08:50:15;102700.47;;;9.94;100.00
47260;BME280;32999;52.412;4.890;2023-03-04T08:55:18;102641.28;;;9.79;100.00
47260;BME280;32999;52.412;4.890;2023-03-04T09:00:20;102691.00;;;10.20;100.00
47260;BME280;32999;52.412;4.890;2023-03-04T09:05:23;102690.75;;;9.83;100.00
47260;BME280;32999;52.412;4.890;2023-03-04T09:10:26;102621.22;;;9.44;100.00
47260;BME280;32999;52.412;4.890;2023-03-04T09:15:28;102606.41;;;9.61;100.00
47260;BME280;32999;52.412;4.890;2023-03-04T09:20:30;102679.31;;;10.21;100.00
47260;BME280;32999;52.412;4.890;2023-03-04T09:25:33;102671.91;;;10.34;100.00
47260;BME280;32999;52.412;4.890;2023-03-04T09:30:35;102673.34;;;11.14;100.00
47260;BME280;32999;52.412;4.890;2023-03-04T09:35:37;102575.81;;;10.99;100.00
47260;BME280;32999;52.412;4.890;2023-03-04T09:40:42;102657.16;;;12.25;100.00
47260;BME280;32999;52.412;4.890;2023-03-04T09:45:48;102656.63;;;11.67;100.00
47260;BME280;32999;52.412;4.890;2023-03-04T09:51:00;102682.06;;;11.16;100.00
47260;BME280;32999;52.412;4.890;2023-03-04T09:56:05;102673.53;;;10.93;100.00
47260;BME280;32999;52.412;4.890;2023-03-04T10:01:10;102668.09;;;10.37;100.00
47260;BME280;32999;52.412;4.890;2023-03-04T10:06:16;102657.44;;;11.49;100.00
47260;BME280;32999;52.412;4.890;2023-03-04T10:11:23;102608.22;;;12.92;100.00
47260;BME280;32999;52.412;4.890;2023-03-04T10:16:30;102626.38;;;12.99;100.00
47260;BME280;32999;52.412;4.890;2023-03-04T10:21:35;102642.22;;;12.66;100.00
47260;BME280;32999;52.412;4.890;2023-03-04T10:26:41;102596.09;;;11.29;100.00
47260;BME280;32999;52.412;4.890;2023-03-04T10:31:45;102643.16;;;10.84;100.00
47260;BME280;32999;52.412;4.890;2023-03-04T10:36:55;102652.25;;;10.91;100.00
47260;BME280;32999;52.412;4.890;2023-03-04T10:42:02;102655.34;;;11.06;100.00
47260;BME280;32999;52.412;4.890;2023-03-04T10:47:09;102550.00;;;12.59;100.00
47260;BME280;32999;52.412;4.890;2023-03-04T10:52:18;102635.22;;;14.01;100.00
47260;BME280;32999;52.412;4.890;2023-03-04T10:57:32;102639.09;;;12.97;100.00
47260;BME280;32999;52.412;4.890;2023-03-04T11:02:35;102651.19;;;11.58;100.00
47260;BME280;32999;52.412;4.890;2023-03-04T11:07:39;102660.97;;;11.13;100.00
47260;BME280;32999;52.412;4.890;2023-03-04T11:12:47;102663.25;;;10.02;100.00
47260;BME280;32999;52.412;4.890;2023-03-04T11:17:51;102619.66;;;10.01;100.00
47260;BME280;32999;52.412;4.890;2023-03-04T11:22:56;102563.69;;;9.71;100.00
47260;BME280;32999;52.412;4.890;2023-03-04T11:33:47;102666.16;;;9.39;100.00
47260;BME280;32999;52.412;4.890;2023-03-04T11:39:02;102590.25;;;8.30;100.00
47260;BME280;32999;52.412;4.890;2023-03-04T11:44:06;102625.41;;;8.56;100.00
47260;BME280;32999;52.412;4.890;2023-03-04T11:49:46;102647.19;;;9.82;100.00
47260;BME280;32999;52.412;4.890;2023-03-04T11:55:02;102533.88;;;9.66;100.00
47260;BME280;32999;52.412;4.890;2023-03-04T12:00:21;102636.53;;;10.88;100.00
47260;BME280;32999;52.412;4.890;2023-03-04T12:05:34;102632.91;;;10.41;100.00
47260;BME280;32999;52.412;4.890;2023-03-04T12:10:41;102621.69;;;10.38;100.00
47260;BME280;32999;52.412;4.890;2023-03-04T12:15:49;102558.59;;;9.48;100.00
47260;BME280;32999;52.412;4.890;2023-03-04T12:21:11;102530.47;;;9.44;100.00
47260;BME280;32999;52.412;4.890;2023-03-04T12:26:23;102570.63;;;10.12;100.00
47260;BME280;32999;52.412;4.890;2023-03-04T12:31:38;102607.00;;;9.84;100.00
47260;BME280;32999;52.412;4.890;2023-03-04T12:36:49;102606.72;;;9.87;100.00
47260;BME280;32999;52.412;4.890;2023-03-04T12:42:04;102525.09;;;9.25;100.00
47260;BME280;32999;52.412;4.890;2023-03-04T12:47:26;102489.34;;;9.37;100.00
47260;BME280;32999;52.412;4.890;2023-03-04T12:52:38;102574.13;;;10.12;100.00
47260;BME280;32999;52.412;4.890;2023-03-04T12:57:43;102525.19;;;9.64;100.00
47260;BME280;32999;52.412;4.890;2023-03-04T13:02:55;102537.56;;;9.65;100.00
47260;BME280;32999;52.412;4.890;2023-03-04T13:08:09;102572.16;;;10.14;100.00
47260;BME280;32999;52.412;4.890;2023-03-04T13:13:38;102552.88;;;9.92;100.00
47260;BME280;32999;52.412;4.890;2023-03-04T13:18:40;102513.41;;;9.85;100.00
47260;BME280;32999;52.412;4.890;2023-03-04T13:23:45;102549.38;;;10.10;100.00
47260;BME280;32999;52.412;4.890;2023-03-04T13:28:53;102496.66;;;9.93;100.00
47260;BME280;32999;52.412;4.890;2023-03-04T13:34:00;102484.97;;;9.46;100.00
47260;BME280;32999;52.412;4.890;2023-03-04T13:39:22;102538.69;;;10.10;100.00
47260;BME280;32999;52.412;4.890;2023-03-04T13:50:36;102518.41;;;10.17;100.00
47260;BME280;32999;52.412;4.890;2023-03-04T13:55:42;102507.44;;;9.43;100.00
47260;BME280;32999;52.412;4.890;2023-03-04T14:06:47;102546.06;;;8.99;100.00
47260;BME280;32999;52.412;4.890;2023-03-04T14:24:06;102539.88;;;8.89;100.00
47260;BME280;32999;52.412;4.890;2023-03-04T14:35:18;102420.06;;;8.57;100.00
47260;BME280;32999;52.412;4.890;2023-03-04T14:40:25;102406.13;;;8.44;100.00
47260;BME280;32999;52.412;4.890;2023-03-04T14:45:28;102464.38;;;8.89;100.00
47260;BME280;32999;52.412;4.890;2023-03-04T14:50:30;102421.41;;;8.92;100.00
47260;BME280;32999;52.412;4.890;2023-03-04T14:55:34;102449.78;;;8.93;100.00
47260;BME280;32999;52.412;4.890;2023-03-04T15:00:37;102490.88;;;9.30;100.00
47260;BME280;32999;52.412;4.890;2023-03-04T15:05:40;102481.91;;;9.50;100.00
47260;BME280;32999;52.412;4.890;2023-03-04T15:10:52;102472.34;;;9.77;100.00
47260;BME280;32999;52.412;4.890;2023-03-04T15:15:59;102476.66;;;10.16;100.00
47260;BME280;32999;52.412;4.890;2023-03-04T15:21:04;102469.25;;;9.91;100.00
47260;BME280;32999;52.412;4.890;2023-03-04T15:26:09;102476.44;;;9.81;100.00
47260;BME280;32999;52.412;4.890;2023-03-04T15:31:14;102399.88;;;9.62;100.00
47260;BME280;32999;52.412;4.890;2023-03-04T15:36:18;102435.53;;;9.42;100.00
47260;BME280;32999;52.412;4.890;2023-03-04T15:41:24;102476.50;;;9.21;100.00
47260;BME280;32999;52.412;4.890;2023-03-04T15:46:26;102417.78;;;8.93;100.00
47260;BME280;32999;52.412;4.890;2023-03-04T15:51:28;102471.94;;;9.52;100.00
47260;BME280;32999;52.412;4.890;2023-03-04T15:56:32;102465.78;;;8.93;100.00
47260;BME280;32999;52.412;4.890;2023-03-04T16:01:42;102464.69;;;9.05;100.00
47260;BME280;32999;52.412;4.890;2023-03-04T16:06:47;102463.81;;;8.95;100.00
47260;BME280;32999;52.412;4.890;2023-03-04T16:24:32;102462.44;;;8.60;100.00
47260;BME280;32999;52.412;4.890;2023-03-04T16:29:55;102460.50;;;8.72;100.00
47260;BME280;32999;52.412;4.890;2023-03-04T16:41:36;102439.63;;;8.37;100.00
47260;BME280;32999;52.412;4.890;2023-03-04T16:46:58;102452.81;;;8.78;100.00
47260;BME280;32999;52.412;4.890;2023-03-04T16:52:06;102456.28;;;8.69;100.00
47260;BME280;32999;52.412;4.890;2023-03-04T16:57:17;102450.25;;;8.67;100.00
47260;BME280;32999;52.412;4.890;2023-03-04T17:02:20;102450.59;;;8.83;100.00
47260;BME280;32999;52.412;4.890;2023-03-04T17:07:23;102464.09;;;8.92;100.00
47260;BME280;32999;52.412;4.890;2023-03-04T17:12:26;102461.59;;;8.90;100.00
47260;BME280;32999;52.412;4.890;2023-03-04T17:17:28;102449.78;;;8.93;100.00
47260;BME280;32999;52.412;4.890;2023-03-04T17:22:31;102453.41;;;8.92;100.00
47260;BME280;32999;52.412;4.890;2023-03-04T17:27:35;102449.44;;;8.76;100.00
47260;BME280;32999;52.412;4.890;2023-03-04T17:32:37;102449.22;;;8.89;100.00
47260;BME280;32999;52.412;4.890;2023-03-04T17:37:45;102478.31;;;8.62;100.00
47260;BME280;32999;52.412;4.890;2023-03-04T17:55:27;102492.34;;;8.22;100.00
47260;BME280;32999;52.412;4.890;2023-03-04T18:19:01;102492.56;;;8.09;100.00
47260;BME280;32999;52.412;4.890;2023-03-04T18:30:45;102491.69;;;8.50;100.00
47260;BME280;32999;52.412;4.890;2023-03-04T18:48:27;102476.97;;;7.09;100.00
47260;BME280;32999;52.412;4.890;2023-03-04T18:53:31;102426.53;;;6.64;100.00
47260;BME280;32999;52.412;4.890;2023-03-04T18:58:39;102477.97;;;6.41;100.00
47260;BME280;32999;52.412;4.890;2023-03-04T19:03:43;102440.84;;;6.06;100.00
47260;BME280;32999;52.412;4.890;2023-03-04T19:08:47;102473.59;;;6.40;100.00
47260;BME280;32999;52.412;4.890;2023-03-04T19:13:57;102385.84;;;5.73;100.00
47260;BME280;32999;52.412;4.890;2023-03-04T19:19:29;102490.53;;;6.61;100.00
47260;BME280;32999;52.412;4.890;2023-03-04T19:24:42;102481.94;;;6.80;100.00
47260;BME280;32999;52.412;4.890;2023-03-04T19:46:34;102365.81;;;5.93;100.00
47260;BME280;32999;52.412;4.890;2023-03-04T19:51:36;102483.16;;;6.54;100.00
47260;BME280;32999;52.412;4.890;2023-03-04T19:56:57;102473.00;;;6.47;100.00
47260;BME280;32999;52.412;4.890;2023-03-04T20:02:02;102446.66;;;6.22;100.00
47260;BME280;32999;52.412;4.890;2023-03-04T20:07:08;102470.94;;;6.51;100.00
47260;BME280;32999;52.412;4.890;2023-03-04T20:12:25;102468.41;;;6.49;100.00
47260;BME280;32999;52.412;4.890;2023-03-04T20:18:09;102464.66;;;6.52;100.00
47260;BME280;32999;52.412;4.890;2023-03-04T20:23:28;102413.22;;;6.08;100.00
47260;BME280;32999;52.412;4.890;2023-03-04T20:28:33;102444.16;;;6.32;100.00
47260;BME280;32999;52.412;4.890;2023-03-04T20:33:36;102476.50;;;6.48;100.00
47260;BME280;32999;52.412;4.890;2023-03-04T20:38:40;102456.09;;;6.37;100.00
47260;BME280;32999;52.412;4.890;2023-03-04T20:43:44;102365.59;;;5.72;100.00
47260;BME280;32999;52.412;4.890;2023-03-04T20:48:58;102450.03;;;6.24;100.00
47260;BME280;32999;52.412;4.890;2023-03-04T20:54:05;102447.50;;;6.11;100.00
47260;BME280;32999;52.412;4.890;2023-03-04T20:59:31;102453.00;;;5.97;100.00
47260;BME280;32999;52.412;4.890;2023-03-04T21:05:17;102459.22;;;5.85;100.00
47260;BME280;32999;52.412;4.890;2023-03-04T22:23:13;102399.72;;;6.34;100.00
47260;BME280;32999;52.412;4.890;2023-03-04T22:28:56;102389.47;;;6.29;100.00
47260;BME280;32999;52.412;4.890;2023-03-04T22:34:14;102328.72;;;5.80;100.00
47260;BME280;32999;52.412;4.890;2023-03-04T22:39:18;102393.22;;;6.16;100.00
47260;BME280;32999;52.412;4.890;2023-03-04T22:44:32;102383.06;;;6.09;100.00
47260;BME280;32999;52.412;4.890;2023-03-04T22:50:30;102381.22;;;5.99;100.00
